createdAt,value
2018-02-10T00:00:37.117Z,96.57
2018-02-10T00:03:04.683Z,96.58
2018-02-10T00:05:32.291Z,96.73
2018-02-10T00:07:59.856Z,96.90
2018-02-10T00:10:27.577Z,96.95
2018-02-10T00:12:55.181Z,96.85
2018-02-10T00:15:22.750Z,96.57
2018-02-10T00:17:50.323Z,96.83
2018-02-10T00:20:17.908Z,96.74
2018-02-10T00:22:48.408Z,96.94
2018-02-10T00:25:15.968Z,96.48
2018-02-10T00:27:43.565Z,96.48
2018-02-10T00:30:11.132Z,96.38
2018-02-10T00:32:38.699Z,96.17
2018-02-10T00:35:06.291Z,96.23
2018-02-10T00:37:33.838Z,96.49
2018-02-10T00:40:01.399Z,96.63
2018-02-10T00:42:29.095Z,96.64
2018-02-10T00:44:56.655Z,97.02
2018-02-10T00:47:24.238Z,97.15
2018-02-10T00:49:51.856Z,96.98
2018-02-10T00:52:19.424Z,96.53
2018-02-10T00:54:47.160Z,96.39
2018-02-10T00:57:14.763Z,96.32
2018-02-10T00:59:42.457Z,96.46
2018-02-10T01:02:10.044Z,96.46
2018-02-10T01:04:37.651Z,96.53
2018-02-10T01:07:05.211Z,96.51
2018-02-10T01:09:32.776Z,96.56
2018-02-10T01:12:00.389Z,97.02
2018-02-10T01:14:27.970Z,97.31
2018-02-10T01:16:55.539Z,97.43
2018-02-10T01:19:23.141Z,97.04
2018-02-10T01:21:50.728Z,97.16
2018-02-10T01:24:18.295Z,97.27
2018-02-10T01:26:46.120Z,97.19
2018-02-10T01:29:13.685Z,97.24
2018-02-10T01:31:41.436Z,97.12
2018-02-10T01:34:09.055Z,97.10
2018-02-10T01:36:36.766Z,96.76
2018-02-10T01:39:04.397Z,96.48
2018-02-10T01:41:32.002Z,96.45
2018-02-10T01:43:59.574Z,96.57
2018-02-10T01:46:27.228Z,96.70
2018-02-10T01:48:54.835Z,96.75
2018-02-10T01:51:22.413Z,96.86
2018-02-10T01:53:49.992Z,96.82
2018-02-10T01:56:17.605Z,96.55
2018-02-10T01:58:45.171Z,96.35
2018-02-10T02:01:12.976Z,96.49
2018-02-10T02:03:40.576Z,96.83
2018-02-10T02:06:08.147Z,96.92
2018-02-10T02:08:35.708Z,97.34
2018-02-10T02:11:03.329Z,97.18
2018-02-10T02:13:31.085Z,97.21
2018-02-10T02:15:58.661Z,97.09
2018-02-10T02:18:32.347Z,96.89
2018-02-10T02:20:59.909Z,96.44
2018-02-10T02:23:27.689Z,96.39
2018-02-10T02:25:55.277Z,96.41
2018-02-10T02:28:22.993Z,96.47
2018-02-10T02:30:50.559Z,96.41
2018-02-10T02:33:18.329Z,96.35
2018-02-10T02:35:45.905Z,96.36
2018-02-10T02:38:13.468Z,96.44
2018-02-10T02:40:41.084Z,96.21
2018-02-10T02:43:08.781Z,95.73
2018-02-10T02:45:36.429Z,95.67
2018-02-10T02:48:04.275Z,95.23
2018-02-10T02:50:31.844Z,94.44
2018-02-10T02:52:59.411Z,94.39
2018-02-10T02:55:27.087Z,94.64
2018-02-10T02:57:54.741Z,94.91
2018-02-10T03:00:22.398Z,95.11
2018-02-10T03:02:50.079Z,95.34
2018-02-10T03:05:17.641Z,95.45
2018-02-10T03:07:45.203Z,95.44
2018-02-10T03:10:12.790Z,95.69
2018-02-10T03:12:40.516Z,95.54
2018-02-10T03:15:08.185Z,95.44
2018-02-10T03:17:35.792Z,95.50
2018-02-10T03:20:03.361Z,95.81
2018-02-10T03:22:30.922Z,96.14
2018-02-10T03:24:58.519Z,96.61
2018-02-10T03:27:26.085Z,96.66
2018-02-10T03:29:53.633Z,96.82
2018-02-10T03:32:21.401Z,96.79
2018-02-10T03:34:49.060Z,97.16
2018-02-10T03:37:16.617Z,97.24
2018-02-10T03:39:44.383Z,96.99
2018-02-10T03:42:12.012Z,97.08
2018-02-10T03:44:39.621Z,96.59
2018-02-10T03:47:07.236Z,96.48
2018-02-10T03:49:34.810Z,96.38
2018-02-10T03:52:02.407Z,96.00
2018-02-10T03:54:30.008Z,95.90
2018-02-10T03:56:57.594Z,96.00
2018-02-10T03:59:25.171Z,95.74
2018-02-10T04:01:52.931Z,95.60
2018-02-10T04:04:20.610Z,95.19
2018-02-10T04:06:48.183Z,95.07
2018-02-10T04:09:15.777Z,95.23
2018-02-10T04:11:43.354Z,95.17
2018-02-10T04:14:11.040Z,95.19
2018-02-10T04:16:38.650Z,95.34
2018-02-10T04:19:06.212Z,95.43
2018-02-10T04:21:33.873Z,95.17
2018-02-10T04:24:01.500Z,95.17
2018-02-10T04:26:29.113Z,95.08
2018-02-10T04:28:56.830Z,95.01
2018-02-10T04:31:24.427Z,95.22
2018-02-10T04:33:52.007Z,94.99
2018-02-10T04:36:19.593Z,94.92
2018-02-10T04:38:47.190Z,95.02
2018-02-10T04:41:14.765Z,95.00
2018-02-10T04:43:42.335Z,94.78
2018-02-10T04:46:10.034Z,94.72
2018-02-10T04:48:37.918Z,94.73
2018-02-10T04:51:05.573Z,95.11
2018-02-10T04:53:33.180Z,94.98
2018-02-10T04:56:00.846Z,95.16
2018-02-10T04:58:28.426Z,95.15
2018-02-10T05:00:56.067Z,95.31
2018-02-10T05:03:24.024Z,95.14
2018-02-10T05:05:51.800Z,95.10
2018-02-10T05:08:19.617Z,95.18
2018-02-10T05:10:47.234Z,95.03
2018-02-10T05:13:14.793Z,94.84
2018-02-10T05:15:42.358Z,94.71
2018-02-10T05:18:09.937Z,94.91
2018-02-10T05:20:37.502Z,94.64
2018-02-10T05:23:05.117Z,94.94
2018-02-10T05:25:32.704Z,94.69
2018-02-10T05:28:00.343Z,94.44
2018-02-10T05:30:27.955Z,94.77
2018-02-10T05:32:55.502Z,93.85
2018-02-10T05:35:23.402Z,93.12
2018-02-10T05:37:50.996Z,92.24
2018-02-10T05:40:18.566Z,92.38
2018-02-10T05:42:46.277Z,92.13
2018-02-10T05:45:13.889Z,92.15
2018-02-10T05:47:41.441Z,92.10
2018-02-10T05:50:09.008Z,91.97
2018-02-10T05:52:36.712Z,92.39
2018-02-10T05:55:04.292Z,92.64
2018-02-10T05:57:31.871Z,92.44
2018-02-10T05:59:59.463Z,92.01
2018-02-10T06:02:27.073Z,90.90
2018-02-10T06:04:54.643Z,90.00
2018-02-10T06:07:22.480Z,89.12
2018-02-10T06:09:50.047Z,88.85
2018-02-10T06:12:17.612Z,88.19
2018-02-10T06:14:45.228Z,88.16
2018-02-10T06:17:12.929Z,87.88
2018-02-10T06:19:40.593Z,88.19
2018-02-10T06:22:08.186Z,88.46
2018-02-10T06:24:35.790Z,88.88
2018-02-10T06:27:03.338Z,88.44
2018-02-10T06:29:30.967Z,88.24
2018-02-10T06:31:58.532Z,88.43
2018-02-10T06:34:26.222Z,88.68
2018-02-10T06:36:53.909Z,87.91
2018-02-10T06:39:21.481Z,87.52
2018-02-10T06:41:49.155Z,86.75
2018-02-10T06:44:16.803Z,85.28
2018-02-10T06:46:44.383Z,83.89
2018-02-10T06:49:11.956Z,83.12
2018-02-10T06:51:39.567Z,80.80
2018-02-10T06:54:07.257Z,79.37
2018-02-10T06:56:34.833Z,78.65
2018-02-10T06:59:02.584Z,79.40
2018-02-10T07:01:30.166Z,79.99
2018-02-10T07:03:57.753Z,80.48
2018-02-10T07:06:25.377Z,80.06
2018-02-10T07:08:53.031Z,79.94
2018-02-10T07:11:20.695Z,80.53
2018-02-10T07:13:48.356Z,80.37
2018-02-10T07:16:16.013Z,79.95
2018-02-10T07:18:43.670Z,79.93
2018-02-10T07:21:11.306Z,80.58
2018-02-10T07:23:38.871Z,82.66
2018-02-10T07:26:06.443Z,81.80
2018-02-10T07:28:34.067Z,80.77
2018-02-10T07:31:01.649Z,79.21
2018-02-10T07:33:29.219Z,79.76
2018-02-10T07:35:56.831Z,79.91
2018-02-10T07:38:24.396Z,78.46
2018-02-10T07:40:51.962Z,78.25
2018-02-10T07:43:19.671Z,77.33
2018-02-10T07:45:47.244Z,76.86
2018-02-10T07:48:14.828Z,76.51
2018-02-10T07:50:43.476Z,77.57
2018-02-10T07:53:11.158Z,76.81
2018-02-10T07:55:39.131Z,77.93
2018-02-10T07:58:06.842Z,76.95
2018-02-10T08:00:34.787Z,77.64
2018-02-10T08:03:02.396Z,76.12
2018-02-10T08:05:30.033Z,75.09
2018-02-10T08:07:57.617Z,74.52
2018-02-10T08:10:25.201Z,74.66
2018-02-10T08:12:52.806Z,75.10
2018-02-10T08:15:20.383Z,73.45
2018-02-10T08:17:48.246Z,71.47
2018-02-10T08:20:15.852Z,68.42
2018-02-10T08:22:43.467Z,65.45
2018-02-10T08:25:11.175Z,63.22
2018-02-10T08:27:38.787Z,62.59
2018-02-10T08:30:06.366Z,60.77
2018-02-10T08:32:33.944Z,58.81
2018-02-10T08:35:01.811Z,56.77
2018-02-10T08:37:29.405Z,58.24
2018-02-10T08:39:56.992Z,59.13
2018-02-10T08:42:24.602Z,59.39
2018-02-10T08:44:52.204Z,56.73
2018-02-10T08:47:19.994Z,55.93
2018-02-10T08:49:47.737Z,54.95
2018-02-10T08:52:15.319Z,56.93
2018-02-10T08:54:43.195Z,55.10
2018-02-10T08:57:10.850Z,55.16
2018-02-10T08:59:38.621Z,54.01
2018-02-10T09:02:06.303Z,51.79
2018-02-10T09:04:33.912Z,50.67
2018-02-10T09:07:01.781Z,49.76
2018-02-10T09:09:29.701Z,49.37
2018-02-10T09:11:57.409Z,48.73
2018-02-10T09:14:24.991Z,46.41
2018-02-10T09:16:52.576Z,45.93
2018-02-10T09:19:20.204Z,43.89
2018-02-10T09:21:47.800Z,42.79
2018-02-10T09:24:15.478Z,43.22
2018-02-10T09:26:43.133Z,43.85
2018-02-10T09:29:10.727Z,45.99
2018-02-10T09:31:38.312Z,47.38
2018-02-10T09:34:05.936Z,48.37
2018-02-10T09:36:33.523Z,48.76
2018-02-10T09:39:01.107Z,49.73
2018-02-10T09:41:28.905Z,50.76
2018-02-10T09:43:58.178Z,50.68
2018-02-10T09:46:26.148Z,50.76
2018-02-10T09:48:53.754Z,51.56
2018-02-10T09:51:21.505Z,50.49
2018-02-10T09:53:49.348Z,50.50
2018-02-10T09:56:17.025Z,50.24
2018-02-10T09:58:44.701Z,51.37
2018-02-10T10:01:12.278Z,51.84
2018-02-10T10:03:39.892Z,51.98
2018-02-10T10:06:07.462Z,53.53
2018-02-10T10:08:35.042Z,51.83
2018-02-10T10:11:02.804Z,51.19
2018-02-10T10:13:30.371Z,51.24
2018-02-10T10:15:57.939Z,50.38
2018-02-10T10:18:25.577Z,49.68
2018-02-10T10:20:53.358Z,50.25
2018-02-10T10:23:20.975Z,50.38
2018-02-10T10:25:49.380Z,50.11
2018-02-10T10:28:17.046Z,52.10
2018-02-10T10:30:44.646Z,52.84
2018-02-10T10:33:12.295Z,54.37
2018-02-10T10:35:39.862Z,54.46
2018-02-10T10:38:07.489Z,55.57
2018-02-10T10:40:35.112Z,56.53
2018-02-10T10:43:03.030Z,55.49
2018-02-10T10:45:30.595Z,55.27
2018-02-10T10:47:58.635Z,56.25
2018-02-10T10:50:26.426Z,57.60
2018-02-10T10:52:54.003Z,57.71
2018-02-10T10:55:21.591Z,58.83
2018-02-10T10:57:49.220Z,56.88
2018-02-10T11:00:18.711Z,56.92
2018-02-10T11:02:46.308Z,58.31
2018-02-10T11:05:14.017Z,57.72
2018-02-10T11:07:41.904Z,58.46
2018-02-10T11:10:09.496Z,57.54
2018-02-10T11:12:37.125Z,57.25
2018-02-10T11:15:04.712Z,57.46
2018-02-10T11:17:32.299Z,57.96
2018-02-10T11:20:00.085Z,58.09
2018-02-10T11:22:27.667Z,58.21
2018-02-10T11:24:55.239Z,58.42
2018-02-10T11:27:22.856Z,57.89
2018-02-10T11:29:50.423Z,59.11
2018-02-10T11:32:17.999Z,59.44
2018-02-10T11:34:45.652Z,60.08
2018-02-10T11:37:13.331Z,60.39
2018-02-10T11:39:41.003Z,59.42
2018-02-10T11:42:08.626Z,58.21
2018-02-10T11:44:36.322Z,57.68
2018-02-10T11:47:03.986Z,57.49
2018-02-10T11:49:31.586Z,57.25
2018-02-10T11:51:59.302Z,57.63
2018-02-10T11:54:26.891Z,57.57
2018-02-10T11:56:54.585Z,57.36
2018-02-10T11:59:22.224Z,56.43
2018-02-10T12:01:49.834Z,56.00
2018-02-10T12:04:17.430Z,57.23
2018-02-10T12:06:45.138Z,58.00
2018-02-10T12:09:12.688Z,58.49
2018-02-10T12:11:40.406Z,58.58
2018-02-10T12:14:08.056Z,57.55
2018-02-10T12:16:35.633Z,57.84
2018-02-10T12:19:03.267Z,58.70
2018-02-10T12:21:30.844Z,59.11
2018-02-10T12:23:58.434Z,58.54
2018-02-10T12:26:26.048Z,58.81
2018-02-10T12:28:54.094Z,60.08
2018-02-10T12:31:21.691Z,60.65
2018-02-10T12:33:49.356Z,60.89
2018-02-10T12:36:17.031Z,60.80
2018-02-10T12:38:44.670Z,60.20
2018-02-10T12:41:12.275Z,60.23
2018-02-10T12:43:39.832Z,60.45
2018-02-10T12:46:07.658Z,59.86
2018-02-10T12:48:40.887Z,59.24
2018-02-10T12:51:08.526Z,60.01
2018-02-10T12:53:36.129Z,58.59
2018-02-10T12:56:03.751Z,61.05
2018-02-10T12:58:31.358Z,60.86
2018-02-10T13:00:59.999Z,62.21
2018-02-10T13:03:27.676Z,63.33
2018-02-10T13:05:55.337Z,63.54
2018-02-10T13:08:22.937Z,63.57
2018-02-10T13:10:50.544Z,63.91
2018-02-10T13:13:18.152Z,63.50
2018-02-10T13:15:45.713Z,63.01
2018-02-10T13:18:13.788Z,62.88
2018-02-10T13:20:41.378Z,61.46
2018-02-10T13:23:09.152Z,61.82
2018-02-10T13:25:36.745Z,61.48
2018-02-10T13:28:04.345Z,63.26
2018-02-10T13:30:31.938Z,62.86
2018-02-10T13:32:59.511Z,63.48
2018-02-10T13:35:27.105Z,65.41
2018-02-10T13:37:54.688Z,62.60
2018-02-10T13:40:22.386Z,63.08
2018-02-10T13:42:49.946Z,63.36
2018-02-10T13:45:17.717Z,63.23
2018-02-10T13:47:45.375Z,64.42
2018-02-10T13:50:12.935Z,64.52
2018-02-10T13:52:40.502Z,65.25
2018-02-10T13:55:08.112Z,70.03
2018-02-10T13:57:35.684Z,66.45
2018-02-10T14:00:03.242Z,70.33
2018-02-10T14:02:30.838Z,66.68
2018-02-10T14:04:59.273Z,66.56
2018-02-10T14:07:26.826Z,66.80
2018-02-10T14:09:54.459Z,67.52
2018-02-10T14:12:22.035Z,68.36
2018-02-10T14:14:49.661Z,68.16
2018-02-10T14:17:17.245Z,69.76
2018-02-10T14:19:44.797Z,71.52
2018-02-10T14:22:12.338Z,69.15
2018-02-10T14:24:39.913Z,69.65
2018-02-10T14:27:07.475Z,69.54
2018-02-10T14:29:35.028Z,69.92
2018-02-10T14:32:02.619Z,70.50
2018-02-10T14:34:30.194Z,71.33
2018-02-10T14:36:57.756Z,70.94
2018-02-10T14:39:25.473Z,70.49
2018-02-10T14:41:53.046Z,71.07
2018-02-10T14:44:20.790Z,72.70
2018-02-10T14:46:48.385Z,71.21
2018-02-10T14:49:15.952Z,71.62
2018-02-10T14:51:43.514Z,72.64
2018-02-10T14:54:11.116Z,74.54
2018-02-10T14:56:38.698Z,73.62
2018-02-10T14:59:06.339Z,75.75
2018-02-10T15:01:33.939Z,77.29
2018-02-10T15:04:01.489Z,78.69
2018-02-10T15:06:29.069Z,80.90
2018-02-10T15:08:56.695Z,82.08
2018-02-10T15:11:24.284Z,83.86
2018-02-10T15:13:51.847Z,84.94
2018-02-10T15:16:19.464Z,86.11
2018-02-10T15:18:47.026Z,86.56
2018-02-10T15:21:14.583Z,87.44
2018-02-10T15:23:42.176Z,87.03
2018-02-10T15:26:09.771Z,88.11
2018-02-10T15:28:37.325Z,87.92
2018-02-10T15:31:16.823Z,88.42
2018-02-10T15:33:56.156Z,89.40
2018-02-10T15:36:23.802Z,90.17
2018-02-10T15:38:51.387Z,90.83
2018-02-10T15:41:18.967Z,90.91
2018-02-10T15:43:46.601Z,90.74
2018-02-10T15:46:14.178Z,91.02
2018-02-10T15:48:41.926Z,91.19
2018-02-10T15:51:09.542Z,90.63
2018-02-10T15:53:37.110Z,90.66
2018-02-10T15:56:04.913Z,89.38
2018-02-10T15:58:32.502Z,89.73
2018-02-10T16:01:00.217Z,90.22
2018-02-10T16:03:27.804Z,90.99
2018-02-10T16:05:55.560Z,91.29
2018-02-10T16:08:23.138Z,91.80
2018-02-10T16:10:50.699Z,91.38
2018-02-10T16:13:18.297Z,92.81
2018-02-10T16:15:45.871Z,93.64
2018-02-10T16:18:13.449Z,93.03
2018-02-10T16:20:41.056Z,92.73
2018-02-10T16:23:08.627Z,92.89
2018-02-10T16:25:36.456Z,92.83
2018-02-10T16:28:04.069Z,93.33
2018-02-10T16:30:31.776Z,93.18
2018-02-10T16:32:59.375Z,92.78
2018-02-10T16:35:27.094Z,93.01
2018-02-10T16:37:54.673Z,93.10
2018-02-10T16:40:22.415Z,93.41
2018-02-10T16:42:50.024Z,93.88
2018-02-10T16:45:17.603Z,93.99
2018-02-10T16:47:45.163Z,94.31
2018-02-10T16:50:12.765Z,94.13
2018-02-10T16:52:40.329Z,94.12
2018-02-10T16:55:07.889Z,94.28
2018-02-10T16:57:35.504Z,94.49
2018-02-10T17:00:03.105Z,94.57
2018-02-10T17:02:30.966Z,94.69
2018-02-10T17:04:58.597Z,94.87
2018-02-10T17:07:26.167Z,94.51
2018-02-10T17:09:53.749Z,94.57
2018-02-10T17:12:21.353Z,94.65
2018-02-10T17:14:48.919Z,94.67
2018-02-10T17:17:16.476Z,94.55
2018-02-10T17:19:44.176Z,94.35
2018-02-10T17:22:11.865Z,94.69
2018-02-10T17:24:39.431Z,94.86
2018-02-10T17:27:07.045Z,94.92
2018-02-10T17:29:34.640Z,94.92
2018-02-10T17:32:02.231Z,94.77
2018-02-10T17:34:29.837Z,94.67
2018-02-10T17:36:57.424Z,94.28
2018-02-10T17:39:25.039Z,93.93
2018-02-10T17:41:52.661Z,93.73
2018-02-10T17:44:20.238Z,94.20
2018-02-10T17:46:47.865Z,94.46
2018-02-10T17:49:15.476Z,94.60
2018-02-10T17:51:43.059Z,94.84
2018-02-10T17:54:10.619Z,94.69
2018-02-10T17:56:38.240Z,94.53
2018-02-10T17:59:05.837Z,95.12
2018-02-10T18:01:33.417Z,95.52
2018-02-10T18:04:01.046Z,94.79
2018-02-10T18:06:28.762Z,94.51
2018-02-10T18:08:56.394Z,94.50
2018-02-10T18:11:24.010Z,91.39
2018-02-10T18:13:51.749Z,90.23
2018-02-10T18:16:19.457Z,88.24
2018-02-10T18:18:47.052Z,87.58
2018-02-10T18:21:14.627Z,86.80
2018-02-10T18:23:42.203Z,85.77
2018-02-10T18:26:09.818Z,84.98
2018-02-10T18:28:37.397Z,83.59
2018-02-10T18:31:04.977Z,83.76
2018-02-10T18:33:33.127Z,84.07
2018-02-10T18:36:00.707Z,83.15
2018-02-10T18:38:28.273Z,83.30
2018-02-10T18:40:56.012Z,83.13
2018-02-10T18:43:23.577Z,83.74
2018-02-10T18:45:51.340Z,82.49
2018-02-10T18:48:19.018Z,83.24
2018-02-10T18:50:46.667Z,82.47
2018-02-10T18:53:14.245Z,82.22
2018-02-10T18:55:41.834Z,82.04
2018-02-10T18:58:09.412Z,81.19
2018-02-10T19:00:36.986Z,82.25
2018-02-10T19:03:04.610Z,80.95
2018-02-10T19:05:32.176Z,80.65
2018-02-10T19:07:59.735Z,79.72
2018-02-10T19:10:27.421Z,80.09
2018-02-10T19:12:54.983Z,79.78
2018-02-10T19:15:22.545Z,80.28
2018-02-10T19:17:50.140Z,79.44
2018-02-10T19:20:17.712Z,80.16
2018-02-10T19:22:45.257Z,79.50
2018-02-10T19:25:12.881Z,79.87
2018-02-10T19:27:40.595Z,79.77
2018-02-10T19:30:08.190Z,79.69
2018-02-10T19:32:35.818Z,79.63
2018-02-10T19:35:03.410Z,79.51
2018-02-10T19:37:30.972Z,79.34
2018-02-10T19:39:58.566Z,79.09
2018-02-10T19:42:26.119Z,79.35
2018-02-10T19:44:53.768Z,79.06
2018-02-10T19:47:21.345Z,79.44
2018-02-10T19:49:48.910Z,79.23
2018-02-10T19:52:16.500Z,78.85
2018-02-10T19:54:44.099Z,78.39
2018-02-10T19:57:11.738Z,79.36
2018-02-10T19:59:39.308Z,79.24
2018-02-10T20:02:06.939Z,79.56
2018-02-10T20:04:34.561Z,79.22
2018-02-10T20:07:02.138Z,78.91
2018-02-10T20:09:29.753Z,78.13
2018-02-10T20:11:57.337Z,78.16
2018-02-10T20:14:24.948Z,78.13
2018-02-10T20:16:52.546Z,77.74
2018-02-10T20:19:21.124Z,77.26
2018-02-10T20:21:48.788Z,76.76
2018-02-10T20:24:16.373Z,78.79
2018-02-10T20:26:43.973Z,79.00
2018-02-10T20:29:11.528Z,80.85
2018-02-10T20:31:40.040Z,81.03
2018-02-10T20:34:07.696Z,82.75
2018-02-10T20:36:35.266Z,83.70
2018-02-10T20:39:02.891Z,84.21
2018-02-10T20:41:30.447Z,85.41
2018-02-10T20:43:58.007Z,85.59
2018-02-10T20:46:25.643Z,86.10
2018-02-10T20:48:53.205Z,86.65
2018-02-10T20:51:20.755Z,86.63
2018-02-10T20:53:48.356Z,86.30
2018-02-10T20:56:16.049Z,86.41
2018-02-10T20:58:43.606Z,84.73
2018-02-10T21:01:11.208Z,85.03
2018-02-10T21:03:38.755Z,85.08
2018-02-10T21:06:06.320Z,86.50
2018-02-10T21:08:33.924Z,86.22
2018-02-10T21:11:01.489Z,86.22
2018-02-10T21:13:29.051Z,87.41
2018-02-10T21:15:56.655Z,86.40
2018-02-10T21:18:24.292Z,87.32
2018-02-10T21:20:51.855Z,87.75
2018-02-10T21:23:19.461Z,87.65
2018-02-10T21:25:47.678Z,88.75
2018-02-10T21:28:15.283Z,89.82
2018-02-10T21:30:42.837Z,89.69
2018-02-10T21:33:16.302Z,90.15
2018-02-10T21:35:43.859Z,90.43
2018-02-10T21:38:11.404Z,90.60
2018-02-10T21:40:38.999Z,90.07
2018-02-10T21:43:06.563Z,90.44
2018-02-10T21:45:34.155Z,89.91
2018-02-10T21:48:01.743Z,88.93
2018-02-10T21:50:29.324Z,88.27
2018-02-10T21:52:56.884Z,88.09
2018-02-10T21:55:24.493Z,89.06
2018-02-10T21:57:52.058Z,89.81
2018-02-10T22:00:19.645Z,89.71
2018-02-10T22:02:47.248Z,89.38
2018-02-10T22:05:14.807Z,90.55
2018-02-10T22:07:42.357Z,90.94
2018-02-10T22:10:09.932Z,91.03
2018-02-10T22:12:37.499Z,92.12
2018-02-10T22:15:05.110Z,92.00
2018-02-10T22:17:32.720Z,92.01
2018-02-10T22:20:00.297Z,91.98
2018-02-10T22:22:27.869Z,92.34
2018-02-10T22:24:55.456Z,92.62
2018-02-10T22:27:23.024Z,92.58
2018-02-10T22:29:50.583Z,92.85
2018-02-10T22:32:18.185Z,92.45
2018-02-10T22:34:45.772Z,91.44
2018-02-10T22:37:13.329Z,92.09
2018-02-10T22:39:40.931Z,92.66
2018-02-10T22:42:08.511Z,91.61
2018-02-10T22:44:36.073Z,91.29
2018-02-10T22:47:03.680Z,92.33
2018-02-10T22:49:31.245Z,92.38
2018-02-10T22:51:58.802Z,92.26
2018-02-10T22:54:26.411Z,93.54
2018-02-10T22:56:53.974Z,93.48
2018-02-10T22:59:21.526Z,93.60
2018-02-10T23:01:49.133Z,93.98
2018-02-10T23:04:16.712Z,92.62
2018-02-10T23:06:44.277Z,93.25
2018-02-10T23:09:11.881Z,93.89
2018-02-10T23:11:39.456Z,93.92
2018-02-10T23:14:07.026Z,93.79
2018-02-10T23:16:34.625Z,93.49
2018-02-10T23:19:02.202Z,93.55
2018-02-10T23:21:29.754Z,94.30
2018-02-10T23:23:57.438Z,94.44
2018-02-10T23:26:25.038Z,94.89
2018-02-10T23:28:52.605Z,94.04
2018-02-10T23:31:20.226Z,94.42
2018-02-10T23:33:47.779Z,94.27
2018-02-10T23:36:15.331Z,94.57
2018-02-10T23:38:42.928Z,94.47
2018-02-10T23:41:10.483Z,94.30
2018-02-10T23:43:38.030Z,94.20
2018-02-10T23:46:05.619Z,94.62
2018-02-10T23:48:33.154Z,94.48
2018-02-10T23:51:00.720Z,94.63
2018-02-10T23:53:28.423Z,94.78
2018-02-10T23:55:55.988Z,94.83
2018-02-10T23:58:23.547Z,94.78
